Bookmark and Share
Track history (hours):
 

Roy Baker

More information available from US FCC via Universal Licensing System and Coast Guard Vessel Documentation Center.

Last reported at 2014-Apr-17 10:19 UTC. Time now 2014-Apr-20 03:15 UTC.
Position N 29°60' W 089°59'.

Length 24 m; draft 2.3 m.

Type: Towing. MMSI: 366996540.

NotesDate/timePositionNaut miles runAvg speedWind from/ knotsBaromVisibWave heightAir tempDewpointWater temp
2014-Apr-17 10:19N 29°60' W 089°59'0 0.0
2014-Apr-17 09:32N 29°60' W 089°59'0 0.0
2014-Apr-17 08:31N 29°60' W 089°59'0 0.0
2014-Apr-17 07:30N 29°60' W 089°59'  
2014-Apr-13 04:20N 29°39' W 090°19'34 4.2
2014-Apr-12 20:20N 29°34' W 090°57'4 5.4
2014-Apr-12 19:30N 29°37' W 091°01'4 4.7
2014-Apr-12 18:33N 29°38' W 091°06'4 4.5
2014-Apr-12 17:33N 29°41' W 091°10'3 2.8
2014-Apr-12 16:33N 29°41' W 091°13'4 4.3
2014-Apr-12 15:33N 29°39' W 091°18'5 4.6
2014-Apr-12 14:33N 29°39' W 091°23'2 2.1
2014-Apr-12 13:33N 29°39' W 091°25'0 0.3
2014-Apr-12 12:32N 29°40' W 091°26'4 3.2
2014-Apr-12 11:21N 29°41' W 091°29'0 0.5
2014-Apr-12 10:33N 29°42' W 091°30'0 0.0
2014-Apr-12 09:33N 29°42' W 091°30'0 0.0
2014-Apr-12 08:33N 29°42' W 091°30'3 2.9
2014-Apr-12 07:33N 29°43' W 091°33'  

Dump ship's entire track history

sailing weather and tide predictions

Roy Baker — WDC2698 — position and weather